createdAt,value
2023-04-15T00:01:20.456Z,9.70
2023-04-15T00:06:25.011Z,5.55
2023-04-15T00:08:55.555Z,7.60
2023-04-15T00:11:25.732Z,5.45
2023-04-15T00:13:55.767Z,9.00
2023-04-15T00:16:25.889Z,11.45
2023-04-15T00:18:55.960Z,6.68
2023-04-15T00:21:26.256Z,9.20
2023-04-15T00:23:56.450Z,8.82
2023-04-15T00:26:26.651Z,7.10
2023-04-15T00:28:56.580Z,6.03
2023-04-15T00:31:26.978Z,6.35
2023-04-15T00:33:57.997Z,7.80
2023-04-15T00:36:28.145Z,8.63
2023-04-15T00:38:58.439Z,7.45
2023-04-15T00:41:28.818Z,9.57
2023-04-15T00:43:59.060Z,6.95
2023-04-15T00:46:30.884Z,8.60
2023-04-15T00:49:01.420Z,8.45
2023-04-15T00:51:32.749Z,8.15
2023-04-15T00:54:03.240Z,9.02
2023-04-15T00:56:37.187Z,8.30
2023-04-15T00:59:09.819Z,7.00
2023-04-15T01:01:40.132Z,9.35
2023-04-15T01:04:12.645Z,11.43
2023-04-15T01:06:42.828Z,6.13
2023-04-15T01:09:13.481Z,7.88
2023-04-15T01:11:43.525Z,6.78
2023-04-15T01:14:13.372Z,6.90
2023-04-15T01:16:43.552Z,9.00
2023-04-15T01:19:14.726Z,6.15
2023-04-15T01:21:45.009Z,6.35
2023-04-15T01:24:17.562Z,8.15
2023-04-15T01:26:48.483Z,7.90
2023-04-15T01:29:18.564Z,6.85
2023-04-15T01:31:53.494Z,6.18
2023-04-15T01:34:24.295Z,7.50
2023-04-15T01:36:56.784Z,7.85
2023-04-15T01:39:27.109Z,12.05
2023-04-15T01:41:59.948Z,6.90
2023-04-15T01:44:30.363Z,8.55
2023-04-15T01:47:00.546Z,7.20
2023-04-15T01:49:30.576Z,6.18
2023-04-15T01:52:00.437Z,8.20
2023-04-15T01:54:30.350Z,9.52
2023-04-15T01:57:00.424Z,11.23
2023-04-15T01:59:33.368Z,6.57
2023-04-15T02:02:03.455Z,6.85
2023-04-15T02:04:33.844Z,6.88
2023-04-15T02:07:03.909Z,12.48
2023-04-15T02:09:34.267Z,8.20
2023-04-15T02:12:04.280Z,7.55
2023-04-15T02:14:35.237Z,9.02
2023-04-15T02:17:08.593Z,7.72
2023-04-15T02:19:38.859Z,9.60
2023-04-15T02:24:40.317Z,11.27
2023-04-15T02:27:11.804Z,12.63
2023-04-15T02:29:41.823Z,8.13
2023-04-15T02:32:13.152Z,6.10
2023-04-15T02:34:44.060Z,7.20
2023-04-15T02:37:15.151Z,10.15
2023-04-15T02:39:45.413Z,9.70
2023-04-15T02:42:15.467Z,9.27
2023-04-15T02:44:45.537Z,7.22
2023-04-15T02:47:17.168Z,7.07
2023-04-15T02:49:47.273Z,13.05
2023-04-15T02:52:17.521Z,5.80
2023-04-15T02:54:47.616Z,8.85
2023-04-15T02:57:17.647Z,8.57
2023-04-15T02:59:47.879Z,9.10
2023-04-15T03:02:18.087Z,11.02
2023-04-15T03:04:48.398Z,11.15
2023-04-15T03:07:20.126Z,6.88
2023-04-15T03:09:50.411Z,6.32
2023-04-15T03:12:20.433Z,9.20
2023-04-15T03:14:50.483Z,8.80
2023-04-15T03:17:25.295Z,10.73
2023-04-15T03:19:55.609Z,6.07
2023-04-15T03:22:27.777Z,8.55
2023-04-15T03:24:58.125Z,8.13
2023-04-15T03:27:28.333Z,5.85
2023-04-15T03:30:02.241Z,8.90
2023-04-15T03:32:35.980Z,8.23
2023-04-15T03:35:06.277Z,10.73
2023-04-15T03:37:36.904Z,7.13
2023-04-15T03:40:07.345Z,10.52
2023-04-15T03:42:37.541Z,8.10
2023-04-15T03:45:08.856Z,8.20
2023-04-15T03:47:39.037Z,10.65
2023-04-15T03:50:09.614Z,14.23
2023-04-15T03:52:39.865Z,10.02
2023-04-15T03:55:11.020Z,7.05
2023-04-15T03:57:41.254Z,7.50
2023-04-15T04:00:11.935Z,8.55
2023-04-15T04:02:42.262Z,8.65
2023-04-15T04:05:13.913Z,8.60
2023-04-15T04:07:43.924Z,5.85
2023-04-15T04:10:13.743Z,7.22
2023-04-15T04:12:43.875Z,7.95
2023-04-15T04:15:13.790Z,8.48
2023-04-15T04:17:43.897Z,6.95
2023-04-15T04:20:13.862Z,7.78
2023-04-15T04:22:44.035Z,8.57
2023-04-15T04:25:13.879Z,10.88
2023-04-15T04:27:43.780Z,8.63
2023-04-15T04:30:14.304Z,9.93
2023-04-15T04:32:44.395Z,6.43
2023-04-15T04:35:14.558Z,7.78
2023-04-15T04:37:44.568Z,9.52
2023-04-15T04:40:15.070Z,7.78
2023-04-15T04:42:46.155Z,8.73
2023-04-15T04:45:16.364Z,7.47
2023-04-15T04:47:51.007Z,9.93
2023-04-15T04:50:21.002Z,10.77
2023-04-15T04:52:51.162Z,9.48
2023-04-15T04:55:21.091Z,9.90
2023-04-15T04:57:51.000Z,6.55
2023-04-15T05:00:21.590Z,7.63
2023-04-15T05:02:51.715Z,8.52
2023-04-15T05:05:21.993Z,8.25
2023-04-15T05:07:52.380Z,9.05
2023-04-15T05:10:22.839Z,7.55
2023-04-15T05:12:53.798Z,7.90
2023-04-15T05:15:24.933Z,10.13
2023-04-15T05:17:55.013Z,9.20
2023-04-15T05:20:25.184Z,10.38
2023-04-15T05:22:55.015Z,7.60
2023-04-15T05:25:24.850Z,11.23
2023-04-15T05:27:57.958Z,8.93
2023-04-15T05:30:27.907Z,7.18
2023-04-15T05:32:58.230Z,9.85
2023-04-15T05:35:28.359Z,10.07
2023-04-15T05:37:58.239Z,7.63
2023-04-15T05:40:28.424Z,7.95
2023-04-15T05:42:58.579Z,10.48
2023-04-15T05:45:28.534Z,8.95
2023-04-15T05:47:58.716Z,8.15
2023-04-15T05:50:28.786Z,13.20
2023-04-15T05:52:59.086Z,14.38
2023-04-15T05:55:29.258Z,13.32
2023-04-15T05:57:59.332Z,13.50
2023-04-15T06:00:29.363Z,15.98
2023-04-15T06:03:00.362Z,12.70
2023-04-15T06:05:31.422Z,11.65
2023-04-15T06:08:01.650Z,11.80
2023-04-15T06:10:32.132Z,11.60
2023-04-15T06:13:02.115Z,14.35
2023-04-15T06:15:32.858Z,16.30
2023-04-15T06:18:02.903Z,14.57
2023-04-15T06:20:32.983Z,13.65
2023-04-15T06:23:03.126Z,18.45
2023-04-15T06:25:33.088Z,18.77
2023-04-15T06:28:03.088Z,13.02
2023-04-15T06:30:33.226Z,19.48
2023-04-15T06:33:06.593Z,19.35
2023-04-15T06:35:36.715Z,17.33
2023-04-15T06:38:06.882Z,14.05
2023-04-15T06:40:37.176Z,14.48
2023-04-15T06:43:07.312Z,15.43
2023-04-15T06:45:37.305Z,15.63
2023-04-15T06:48:08.585Z,19.25
2023-04-15T06:50:38.874Z,18.02
2023-04-15T06:53:08.991Z,19.40
2023-04-15T06:55:39.014Z,18.40
2023-04-15T06:58:09.164Z,21.67
2023-04-15T07:00:40.528Z,19.13
2023-04-15T07:03:12.335Z,24.40
2023-04-15T07:05:42.632Z,21.75
2023-04-15T07:08:13.414Z,32.47
2023-04-15T07:10:43.416Z,20.63
2023-04-15T07:13:13.661Z,21.67
2023-04-15T07:15:43.625Z,20.38
2023-04-15T07:18:13.506Z,24.23
2023-04-15T07:20:43.316Z,23.23
2023-04-15T07:23:13.381Z,24.23
2023-04-15T07:25:43.351Z,29.77
2023-04-15T07:28:13.493Z,27.05
2023-04-15T07:30:43.614Z,22.55
2023-04-15T07:33:13.884Z,27.38
2023-04-15T07:35:43.870Z,27.70
2023-04-15T07:38:16.711Z,29.88
2023-04-15T07:40:47.739Z,23.67
2023-04-15T07:43:17.910Z,20.73
2023-04-15T07:45:48.161Z,30.83
2023-04-15T07:48:18.234Z,27.08
2023-04-15T07:50:48.242Z,22.13
2023-04-15T07:53:18.301Z,38.33
2023-04-15T07:55:48.279Z,26.42
2023-04-15T07:58:18.553Z,27.80
2023-04-15T08:00:48.610Z,21.42
2023-04-15T08:03:18.802Z,21.98
2023-04-15T08:05:48.912Z,18.35
2023-04-15T08:08:19.138Z,18.08
2023-04-15T08:10:51.310Z,19.92
2023-04-15T08:13:22.836Z,19.20
2023-04-15T08:16:22.908Z,18.88
2023-04-15T08:18:54.555Z,28.27
2023-04-15T08:21:25.025Z,23.67
2023-04-15T08:23:55.813Z,15.48
2023-04-15T08:26:26.059Z,15.07
2023-04-15T08:28:55.925Z,18.20
2023-04-15T08:31:28.409Z,20.42
2023-04-15T08:34:00.521Z,19.17
2023-04-15T08:36:31.520Z,16.00
2023-04-15T08:39:04.127Z,20.10
2023-04-15T08:41:47.794Z,26.15
2023-04-15T08:44:18.718Z,29.23
2023-04-15T08:46:49.896Z,17.13
2023-04-15T08:49:23.913Z,15.52
2023-04-15T08:51:54.306Z,16.17
2023-04-15T08:54:24.747Z,20.13
2023-04-15T08:56:55.620Z,14.80
2023-04-15T08:59:26.168Z,13.25
2023-04-15T09:01:56.905Z,14.70
2023-04-15T09:04:27.211Z,13.63
2023-04-15T09:06:58.380Z,12.65
2023-04-15T09:09:29.420Z,13.02
2023-04-15T09:11:59.373Z,12.50
2023-04-15T09:14:33.349Z,12.73
2023-04-15T09:17:06.863Z,11.25
2023-04-15T09:19:37.125Z,12.60
2023-04-15T09:22:07.521Z,12.02
2023-04-15T09:24:40.362Z,10.60
2023-04-15T09:27:10.424Z,13.73
2023-04-15T09:29:42.907Z,13.77
2023-04-15T09:32:17.113Z,17.98
2023-04-15T09:34:47.227Z,14.38
2023-04-15T09:37:31.715Z,11.32
2023-04-15T09:40:02.143Z,13.23
2023-04-15T09:42:32.206Z,12.13
2023-04-15T09:45:13.378Z,16.98
2023-04-15T09:47:43.682Z,27.33
2023-04-15T09:50:13.884Z,12.07
2023-04-15T09:52:45.214Z,14.63
2023-04-15T09:55:18.188Z,10.15
2023-04-15T09:57:48.679Z,11.43
2023-04-15T10:00:19.053Z,11.40
2023-04-15T10:02:50.932Z,12.65
2023-04-15T10:05:21.730Z,9.27
2023-04-15T10:07:52.011Z,10.35
2023-04-15T10:10:22.670Z,10.23
2023-04-15T10:12:54.088Z,14.85
2023-04-15T10:15:25.056Z,9.27
2023-04-15T10:17:56.603Z,14.45
2023-04-15T10:20:27.493Z,14.52
2023-04-15T10:22:58.701Z,17.08
2023-04-15T10:25:30.157Z,12.43
2023-04-15T10:28:01.060Z,9.05
2023-04-15T10:30:32.592Z,7.78
2023-04-15T10:33:05.161Z,8.25
2023-04-15T10:38:34.921Z,8.13
2023-04-15T10:41:22.729Z,7.82
2023-04-15T10:44:02.769Z,8.07
2023-04-15T10:46:40.507Z,9.60
2023-04-15T10:49:14.599Z,12.10
2023-04-15T10:51:52.991Z,12.93
2023-04-15T10:54:28.972Z,13.55
2023-04-15T10:57:07.944Z,12.00
2023-04-15T11:00:01.545Z,10.75
2023-04-15T11:02:57.722Z,10.95
2023-04-15T11:05:43.829Z,13.15
2023-04-15T11:08:15.212Z,11.13
2023-04-15T11:10:45.316Z,11.30
2023-04-15T11:13:23.149Z,10.13
2023-04-15T11:15:56.865Z,11.93
2023-04-15T11:18:32.075Z,13.57
2023-04-15T11:21:04.803Z,10.57
2023-04-15T11:23:50.447Z,8.98
2023-04-15T11:26:20.611Z,10.43
2023-04-15T11:28:50.607Z,10.07
2023-04-15T11:31:21.152Z,9.02
2023-04-15T11:34:00.392Z,8.88
2023-04-15T11:36:33.122Z,7.65
2023-04-15T11:39:03.275Z,7.35
2023-04-15T11:41:33.198Z,7.57
2023-04-15T11:44:03.333Z,5.93
2023-04-15T11:46:33.823Z,3.17
2023-04-15T11:49:03.921Z,4.50
2023-04-15T11:51:37.473Z,3.28
2023-04-15T11:54:07.801Z,3.40
2023-04-15T11:56:37.902Z,1.98
2023-04-15T11:59:07.950Z,1.83
2023-04-15T12:01:45.086Z,1.80
2023-04-15T12:04:20.116Z,3.72
2023-04-15T12:06:52.455Z,2.33
2023-04-15T12:09:23.082Z,1.65
2023-04-15T12:11:59.628Z,2.00
2023-04-15T12:14:34.474Z,1.80
2023-04-15T12:17:09.306Z,1.58
2023-04-15T12:19:42.978Z,1.30
2023-04-15T12:22:17.383Z,2.08
2023-04-15T12:24:49.890Z,2.08
2023-04-15T12:27:19.866Z,3.30
2023-04-15T12:29:49.914Z,1.23
2023-04-15T12:32:23.994Z,1.25
2023-04-15T12:34:58.245Z,1.95
2023-04-15T12:37:28.266Z,2.38
2023-04-15T12:39:58.484Z,1.40
2023-04-15T12:42:28.572Z,1.30
2023-04-15T12:44:58.700Z,1.50
2023-04-15T12:47:28.803Z,1.90
2023-04-15T12:49:58.869Z,1.90
2023-04-15T12:52:28.899Z,1.60
2023-04-15T12:54:58.913Z,2.30
2023-04-15T12:57:29.138Z,1.35
2023-04-15T12:59:59.162Z,1.20
2023-04-15T13:02:30.122Z,1.83
2023-04-15T13:05:01.342Z,4.50
2023-04-15T13:07:32.205Z,1.58
2023-04-15T13:10:02.644Z,3.63
2023-04-15T13:12:32.887Z,3.65
2023-04-15T13:15:05.010Z,3.15
2023-04-15T13:17:35.623Z,1.38
2023-04-15T13:20:05.755Z,4.00
2023-04-15T13:22:35.760Z,3.85
2023-04-15T13:25:06.046Z,2.33
2023-04-15T13:27:36.252Z,3.92
2023-04-15T13:30:08.506Z,1.65
2023-04-15T13:32:38.686Z,4.00
2023-04-15T13:35:08.792Z,3.95
2023-04-15T13:37:40.520Z,2.28
2023-04-15T13:40:12.033Z,1.08
2023-04-15T13:42:42.198Z,2.10
2023-04-15T13:45:12.527Z,2.15
2023-04-15T13:47:42.571Z,1.80
2023-04-15T13:50:13.223Z,2.85
2023-04-15T13:52:43.213Z,1.92
2023-04-15T13:55:22.220Z,2.17
2023-04-15T13:57:53.366Z,3.35
2023-04-15T14:00:23.470Z,1.80
2023-04-15T14:02:53.614Z,2.60
2023-04-15T14:05:23.863Z,8.35
2023-04-15T14:07:53.953Z,3.03
2023-04-15T14:10:24.254Z,1.88
2023-04-15T14:12:54.235Z,3.60
2023-04-15T14:15:24.106Z,1.30
2023-04-15T14:17:54.169Z,1.60
2023-04-15T14:20:24.196Z,2.08
2023-04-15T14:22:54.003Z,1.48
2023-04-15T14:25:33.270Z,1.83
2023-04-15T14:28:05.313Z,4.53
2023-04-15T14:30:37.519Z,1.00
2023-04-15T14:33:07.522Z,1.00
2023-04-15T14:35:39.540Z,1.13
2023-04-15T14:38:11.809Z,0.85
2023-04-15T14:40:43.429Z,0.70
2023-04-15T14:43:13.535Z,1.88
2023-04-15T14:45:45.251Z,0.98
2023-04-15T14:50:45.002Z,0.57
2023-04-15T14:53:15.201Z,3.22
2023-04-15T14:55:45.373Z,1.67
2023-04-15T14:58:15.651Z,1.42
2023-04-15T15:03:17.267Z,1.15
2023-04-15T15:05:49.662Z,0.60
2023-04-15T15:08:19.796Z,1.13
2023-04-15T15:10:50.181Z,0.85
2023-04-15T15:13:20.633Z,1.80
2023-04-15T15:15:50.937Z,1.45
2023-04-15T15:18:21.077Z,0.80
2023-04-15T15:20:52.430Z,1.58
2023-04-15T15:23:22.460Z,0.88
2023-04-15T15:25:52.712Z,0.70
2023-04-15T15:28:23.090Z,0.95
2023-04-15T15:30:53.307Z,0.70
2023-04-15T15:33:23.668Z,0.75
2023-04-15T15:35:54.818Z,0.85
2023-04-15T15:38:25.019Z,0.80
2023-04-15T15:40:54.878Z,1.15
2023-04-15T15:43:24.720Z,2.75
2023-04-15T15:45:56.638Z,1.10
2023-04-15T15:50:57.413Z,1.25
2023-04-15T15:53:28.471Z,0.75
2023-04-15T15:55:58.711Z,1.00
2023-04-15T15:58:28.931Z,1.20
2023-04-15T16:01:01.106Z,1.27
2023-04-15T16:03:32.194Z,0.60
2023-04-15T16:06:06.074Z,0.80
2023-04-15T16:08:36.342Z,1.73
2023-04-15T16:11:06.572Z,1.27
2023-04-15T16:13:37.626Z,0.50
2023-04-15T16:16:08.123Z,1.23
2023-04-15T16:18:38.141Z,1.20
2023-04-15T16:21:08.110Z,2.30
2023-04-15T16:23:38.576Z,0.50
2023-04-15T16:26:08.691Z,2.75
2023-04-15T16:28:38.761Z,3.72
2023-04-15T16:31:09.006Z,0.80
2023-04-15T16:33:39.295Z,0.50
2023-04-15T16:36:09.577Z,2.20
2023-04-15T16:38:39.585Z,2.53
2023-04-15T16:41:09.610Z,1.30
2023-04-15T16:43:39.630Z,0.82
2023-04-15T16:46:10.332Z,3.45
2023-04-15T16:48:40.341Z,1.20
2023-04-15T16:51:10.283Z,2.05
2023-04-15T16:53:43.389Z,1.50
2023-04-15T16:56:13.233Z,0.70
2023-04-15T16:58:43.487Z,1.00
2023-04-15T17:01:13.720Z,1.05
2023-04-15T17:03:44.009Z,0.60
2023-04-15T17:06:14.193Z,0.88
2023-04-15T17:08:45.115Z,0.80
2023-04-15T17:11:16.659Z,0.60
2023-04-15T17:13:46.955Z,1.40
2023-04-15T17:16:17.190Z,1.67
2023-04-15T17:18:48.535Z,1.23
2023-04-15T17:21:19.177Z,0.70
2023-04-15T17:23:49.184Z,0.60
2023-04-15T17:26:20.061Z,2.70
2023-04-15T17:28:50.243Z,0.60
2023-04-15T17:31:20.310Z,1.92
2023-04-15T17:33:55.906Z,1.08
2023-04-15T17:36:38.382Z,2.35
2023-04-15T17:39:08.266Z,0.60
2023-04-15T17:41:38.295Z,0.65
2023-04-15T17:44:08.102Z,1.65
2023-04-15T17:46:38.292Z,1.65
2023-04-15T17:49:08.422Z,2.47
2023-04-15T17:51:38.282Z,0.80
2023-04-15T17:54:11.668Z,1.30
2023-04-15T17:56:41.939Z,0.90
2023-04-15T17:59:12.187Z,1.23
2023-04-15T18:01:43.757Z,2.35
2023-04-15T18:04:15.655Z,0.63
2023-04-15T18:06:45.937Z,0.75
2023-04-15T18:09:16.175Z,1.20
2023-04-15T18:11:48.483Z,0.60
2023-04-15T18:14:31.146Z,0.90
2023-04-15T18:17:04.494Z,0.63
2023-04-15T18:19:34.711Z,0.75
2023-04-15T18:22:05.226Z,0.70
2023-04-15T18:24:35.188Z,0.50
2023-04-15T18:27:05.402Z,1.38
2023-04-15T18:29:36.182Z,1.13
2023-04-15T18:32:06.696Z,0.90
2023-04-15T18:34:36.921Z,1.40
2023-04-15T18:37:07.580Z,0.93
2023-04-15T18:39:37.622Z,1.15
2023-04-15T18:42:07.543Z,2.47
2023-04-15T18:44:37.373Z,1.13
2023-04-15T18:47:07.453Z,1.00
2023-04-15T18:49:37.818Z,1.30
2023-04-15T18:52:07.894Z,0.80
2023-04-15T18:54:38.480Z,0.68
2023-04-15T18:57:08.691Z,0.52
2023-04-15T18:59:38.846Z,0.43
2023-04-15T19:02:10.113Z,0.82
2023-04-15T19:04:40.106Z,0.88
2023-04-15T19:07:10.972Z,1.48
2023-04-15T19:09:42.209Z,1.27
2023-04-15T19:12:12.222Z,2.25
2023-04-15T19:14:43.207Z,0.88
2023-04-15T19:17:13.211Z,0.60
2023-04-15T19:19:43.270Z,2.80
2023-04-15T19:22:13.532Z,2.97
2023-04-15T19:24:43.663Z,1.48
2023-04-15T19:27:13.676Z,2.83
2023-04-15T19:29:43.532Z,5.18
2023-04-15T19:32:15.201Z,0.50
2023-04-15T19:37:14.860Z,0.95
2023-04-15T19:39:44.899Z,1.25
2023-04-15T19:42:14.934Z,1.02
2023-04-15T19:44:45.101Z,1.10
2023-04-15T19:47:15.121Z,1.33
2023-04-15T19:49:45.408Z,1.60
2023-04-15T19:52:15.656Z,1.23
2023-04-15T19:54:45.713Z,1.13
2023-04-15T19:57:15.747Z,2.83
2023-04-15T19:59:45.755Z,0.82
2023-04-15T20:02:15.719Z,1.05
2023-04-15T20:04:45.724Z,0.90
2023-04-15T20:07:15.642Z,1.33
2023-04-15T20:09:46.605Z,2.38
2023-04-15T20:12:50.299Z,1.58
2023-04-15T20:15:07.600Z,4.82
2023-04-15T20:17:38.712Z,1.58
2023-04-15T20:20:09.785Z,2.78
2023-04-15T20:22:39.802Z,2.03
2023-04-15T20:25:10.369Z,2.17
2023-04-15T20:27:40.458Z,1.00
2023-04-15T20:30:10.808Z,2.92
2023-04-15T20:32:41.113Z,4.75
2023-04-15T20:35:11.735Z,1.27
2023-04-15T20:37:41.905Z,1.98
2023-04-15T20:40:13.011Z,1.65
2023-04-15T20:42:44.854Z,1.20
2023-04-15T20:47:44.582Z,2.88
2023-04-15T20:50:14.830Z,1.52
2023-04-15T20:52:44.905Z,2.38
2023-04-15T20:55:15.022Z,2.60
2023-04-15T20:57:45.338Z,2.63
2023-04-15T21:00:16.932Z,4.15
2023-04-15T21:02:47.804Z,2.03
2023-04-15T21:05:18.118Z,4.32
2023-04-15T21:07:48.390Z,3.08
2023-04-15T21:10:18.505Z,3.28
2023-04-15T21:12:48.794Z,4.22
2023-04-15T21:15:19.173Z,2.65
2023-04-15T21:17:49.294Z,3.13
2023-04-15T21:20:19.673Z,3.47
2023-04-15T21:22:50.228Z,3.30
2023-04-15T21:25:20.745Z,2.47
2023-04-15T21:27:51.906Z,3.55
2023-04-15T21:30:22.251Z,5.43
2023-04-15T21:32:52.351Z,4.50
2023-04-15T21:35:22.928Z,3.28
2023-04-15T21:37:52.989Z,5.72
2023-04-15T21:40:23.112Z,4.30
2023-04-15T21:42:53.847Z,4.50
2023-04-15T21:45:24.057Z,3.20
2023-04-15T21:48:01.161Z,3.78
2023-04-15T21:50:41.711Z,2.72
2023-04-15T21:53:17.541Z,2.28
2023-04-15T21:55:48.928Z,5.40
2023-04-15T21:58:19.280Z,3.22
2023-04-15T22:00:50.068Z,4.43
2023-04-15T22:03:21.805Z,3.30
2023-04-15T22:05:52.037Z,6.65
2023-04-15T22:08:25.012Z,4.45
2023-04-15T22:10:56.577Z,6.07
2023-04-15T22:13:26.904Z,5.00
2023-04-15T22:15:57.081Z,6.53
2023-04-15T22:18:30.117Z,4.38
2023-04-15T22:21:02.792Z,5.40
2023-04-15T22:24:38.977Z,7.15
2023-04-15T22:27:27.390Z,3.50
2023-04-15T22:29:59.056Z,7.32
2023-04-15T22:32:30.749Z,3.50
2023-04-15T22:35:21.635Z,2.75
2023-04-15T22:37:56.077Z,3.33
2023-04-15T22:40:27.385Z,4.40
2023-04-15T22:43:00.646Z,5.47
2023-04-15T22:45:31.551Z,3.58
2023-04-15T22:48:04.846Z,2.72
2023-04-15T22:50:35.541Z,6.22
2023-04-15T22:53:07.260Z,5.85
2023-04-15T22:55:41.221Z,3.95
2023-04-15T22:58:14.045Z,5.57
2023-04-15T23:00:46.236Z,7.47
2023-04-15T23:03:55.527Z,4.13
2023-04-15T23:06:28.324Z,3.58
2023-04-15T23:09:01.487Z,5.78
2023-04-15T23:11:34.261Z,6.72
2023-04-15T23:17:00.717Z,4.68
2023-04-15T23:19:31.545Z,8.57
2023-04-15T23:22:43.158Z,4.53
2023-04-15T23:25:36.052Z,4.63
2023-04-15T23:28:35.964Z,8.95
2023-04-15T23:31:06.956Z,3.80
2023-04-15T23:33:39.683Z,6.95
2023-04-15T23:36:12.276Z,5.35
2023-04-15T23:42:09.368Z,4.22
2023-04-15T23:44:41.277Z,4.30
2023-04-15T23:47:16.062Z,5.53
2023-04-15T23:50:05.937Z,6.47
2023-04-15T23:52:57.594Z,3.53
2023-04-15T23:55:28.255Z,4.45
2023-04-15T23:58:18.492Z,4.18
